Parkville, Minnesota
Current Conditions -  °F | °C
As of 5:11 PM on Friday 31 Oct 2014 (Local Time) from KEVM Reporting Station
Clear Clear  
Wind Chill: 34°   Ceiling: Unl
Heat Index: 34°   Visibility: 10mi
Dew Point: 18°   Wind: 3mph
Humidity: 52%   Direction: 350°N
Pressure: 30.48"   Gusts: NA
Location:  47.4996°N, 92.6723°W
Report Text: KEVM 312211Z AUTO 35003KT 10SM CLR 01/M08 A3048 RMK AO2
Loading
Personal Weather Stations






























Interactive Weather Map
Tropical Storm Tracking
New forecast layout! Learn more

10-Day Weather Forecast

Advertisements
Track Severe Weather on mobile